This is the latest recevied weather packets stored in our database for station/object OE-11061. If no packets are shown the sender has not sent any weather packets the latest 10 day(s).
| Time | Temp. | Humidity | Pressure | Rain* | Wind** | Luminosity | Snow |
|---|---|---|---|---|---|---|---|
| 1787601320 | 18.89° C | 67% | 1014 hPa | 0 mm | - | 0 W/m² | - |
| 1787600493 | 18.89° C | 68% | 1014.2 hPa | 0 mm | - | 0 W/m² | - |
| 1787600120 | 18.89° C | 68% | 1014.3 hPa | 0 mm | - | 0 W/m² | - |
| 1787599519 | 19.44° C | 66% | 1014.3 hPa | 0 mm | - | 0 W/m² | - |
| 1787598693 | 18.89° C | 67% | 1014.2 hPa | 0 mm | - | 0 W/m² | - |
| 1787598319 | 19.44° C | 66% | 1014.3 hPa | 0 mm | - | 0 W/m² | - |
| 1787597719 | 18.89° C | 66% | 1014.3 hPa | 0 mm | - | 0 W/m² | - |
| 1787596893 | 18.89° C | 68% | 1014.4 hPa | 0 mm | - | 0 W/m² | - |
| 1787596519 | 18.89° C | 67% | 1014.3 hPa | 0 mm | - | 0 W/m² | - |
| 1787595920 | 19.44° C | 65% | 1014.3 hPa | 0 mm | - | 0 W/m² | - |
| 1787595093 | 20° C | 64% | 1014.4 hPa | 0 mm | - | 7 W/m² | - |
| 1787594720 | 20° C | 63% | 1014.5 hPa | 0 mm | - | 15 W/m² | - |
| 1787593293 | 20.56° C | 62% | 1014.6 hPa | 0 mm | - | 30 W/m² | - |
| 1787592919 | 21.11° C | 59% | 1014.6 hPa | 0 mm | - | 37 W/m² | - |
| 1787592320 | 21.67° C | 57% | 1014.6 hPa | 0 mm | - | 60 W/m² | - |
| 1787591493 | 22.22° C | 55% | 1014.6 hPa | 0 mm | - | 134 W/m² | - |
| 1787591119 | 22.22° C | 55% | 1014.6 hPa | 0 mm | - | 119 W/m² | - |
| 1787590519 | 22.78° C | 53% | 1014.8 hPa | 0 mm | - | 209 W/m² | - |
| 1787589692 | 22.78° C | 53% | 1014.8 hPa | 0 mm | - | 239 W/m² | - |
| 1787589316 | 23.33° C | 54% | 1015.1 hPa | 0 mm | - | 269 W/m² | - |
| 1787588713 | 23.33° C | 54% | 1015.2 hPa | 0 mm | - | 336 W/m² | - |
| 1787587889 | 22.78° C | 56% | 1015.5 hPa | 0 mm | - | 157 W/m² | - |
| 1787587514 | 22.78° C | 53% | 1015.6 hPa | 0 mm | - | 217 W/m² | - |
| 1787586914 | 23.33° C | 54% | 1015.7 hPa | 0 mm | - | 202 W/m² | - |
| 1787586089 | 23.89° C | 50% | 1015.8 hPa | 0 mm | - | 366 W/m² | - |
* Rain latest hour (hover to see other rain measurements)
** Current wind speed in m/s (hover to see current wind gust speed)